createdAt,value
2019-06-26T00:01:05.495Z,65.70
2019-06-26T00:03:34.642Z,65.70
2019-06-26T00:06:03.810Z,65.80
2019-06-26T00:08:32.983Z,65.70
2019-06-26T00:11:02.117Z,66.20
2019-06-26T00:13:31.201Z,66.60
2019-06-26T00:16:00.350Z,66.20
2019-06-26T00:18:29.476Z,66.20
2019-06-26T00:20:58.559Z,66.30
2019-06-26T00:23:27.995Z,66.30
2019-06-26T00:25:57.409Z,66.90
2019-06-26T00:28:26.528Z,66.40
2019-06-26T00:30:55.999Z,66.60
2019-06-26T00:33:25.050Z,66.50
2019-06-26T00:35:54.052Z,66.50
2019-06-26T00:38:23.169Z,67.10
2019-06-26T00:40:52.201Z,66.90
2019-06-26T00:43:21.256Z,66.60
2019-06-26T00:45:50.341Z,66.80
2019-06-26T00:48:19.433Z,67.30
2019-06-26T00:50:48.759Z,67.40
2019-06-26T00:53:17.759Z,67.50
2019-06-26T00:55:46.852Z,67.50
2019-06-26T00:58:15.986Z,68.50
2019-06-26T01:00:51.988Z,68.00
2019-06-26T01:03:21.113Z,67.80
2019-06-26T01:05:50.188Z,67.50
2019-06-26T01:08:19.250Z,67.50
2019-06-26T01:10:48.329Z,67.40
2019-06-26T01:13:17.694Z,67.40
2019-06-26T01:15:46.685Z,67.30
2019-06-26T01:18:15.705Z,67.40
2019-06-26T01:20:44.767Z,67.10
2019-06-26T01:23:13.760Z,67.40
2019-06-26T01:25:42.821Z,67.30
2019-06-26T01:28:11.839Z,67.30
2019-06-26T01:30:40.955Z,67.20
2019-06-26T01:33:10.030Z,67.30
2019-06-26T01:35:39.122Z,67.40
2019-06-26T01:38:08.152Z,67.50
2019-06-26T01:40:37.551Z,67.80
2019-06-26T01:43:06.625Z,68.30
2019-06-26T01:45:35.617Z,67.50
2019-06-26T01:48:04.633Z,67.60
2019-06-26T01:50:34.042Z,68.00
2019-06-26T01:53:03.116Z,68.20
2019-06-26T01:55:32.199Z,68.30
2019-06-26T01:58:01.215Z,68.60
2019-06-26T02:00:31.106Z,68.40
2019-06-26T02:03:00.245Z,68.40
2019-06-26T02:05:29.280Z,68.50
2019-06-26T02:07:58.372Z,68.50
2019-06-26T02:10:27.447Z,68.60
2019-06-26T02:12:56.531Z,68.50
2019-06-26T02:15:25.593Z,68.60
2019-06-26T02:17:54.656Z,68.70
2019-06-26T02:20:23.762Z,69.20
2019-06-26T02:22:52.796Z,69.20
2019-06-26T02:25:21.849Z,69.10
2019-06-26T02:27:51.121Z,69.40
2019-06-26T02:30:20.778Z,69.00
2019-06-26T02:32:49.868Z,69.10
2019-06-26T02:35:18.950Z,69.80
2019-06-26T02:37:47.998Z,69.90
2019-06-26T02:40:18.958Z,69.90
2019-06-26T02:42:48.281Z,70.30
2019-06-26T02:45:17.712Z,70.30
2019-06-26T02:47:46.825Z,70.50
2019-06-26T02:50:16.011Z,70.40
2019-06-26T02:52:45.303Z,70.20
2019-06-26T02:55:14.871Z,70.00
2019-06-26T02:57:44.315Z,70.00
2019-06-26T03:00:13.923Z,70.20
2019-06-26T03:02:43.096Z,70.30
2019-06-26T03:05:12.172Z,70.10
2019-06-26T03:07:41.255Z,70.30
2019-06-26T03:10:10.471Z,70.60
2019-06-26T03:12:39.571Z,70.50
2019-06-26T03:15:10.168Z,70.80
2019-06-26T03:17:54.370Z,70.50
2019-06-26T03:20:11.390Z,70.70
2019-06-26T03:22:40.433Z,70.50
2019-06-26T03:25:09.953Z,70.50
2019-06-26T03:27:39.010Z,70.60
2019-06-26T03:30:08.233Z,70.70
2019-06-26T03:32:37.399Z,70.90
2019-06-26T03:35:06.915Z,70.70
2019-06-26T03:37:36.016Z,70.80
2019-06-26T03:40:08.969Z,71.00
2019-06-26T03:42:38.437Z,70.80
2019-06-26T03:45:24.201Z,71.30
2019-06-26T03:47:39.225Z,71.30
2019-06-26T03:50:08.962Z,71.00
2019-06-26T03:52:38.084Z,71.60
2019-06-26T03:55:08.009Z,71.20
2019-06-26T03:57:37.074Z,71.00
2019-06-26T04:00:09.870Z,71.40
2019-06-26T04:02:38.932Z,71.10
2019-06-26T04:05:08.734Z,71.00
2019-06-26T04:07:37.828Z,71.30
2019-06-26T04:10:08.158Z,72.30
2019-06-26T04:12:37.188Z,71.60
2019-06-26T04:15:08.505Z,71.50
2019-06-26T04:17:37.583Z,71.80
2019-06-26T04:20:07.124Z,71.50
2019-06-26T04:22:36.173Z,71.50
2019-06-26T04:25:07.377Z,71.30
2019-06-26T04:27:36.413Z,71.00
2019-06-26T04:30:07.639Z,71.40
2019-06-26T04:32:36.976Z,71.60
2019-06-26T04:35:07.550Z,71.80
2019-06-26T04:37:36.725Z,72.10
2019-06-26T04:40:07.073Z,71.90
2019-06-26T04:42:36.134Z,71.70
2019-06-26T04:45:08.991Z,71.50
2019-06-26T04:47:38.044Z,71.80
2019-06-26T04:50:09.291Z,71.70
2019-06-26T04:52:38.551Z,72.00
2019-06-26T04:55:09.083Z,72.30
2019-06-26T04:57:38.169Z,72.20
2019-06-26T05:00:09.493Z,72.00
2019-06-26T05:02:38.596Z,71.90
2019-06-26T05:05:08.025Z,71.90
2019-06-26T05:07:37.068Z,71.70
2019-06-26T05:10:09.363Z,71.70
2019-06-26T05:12:38.378Z,71.80
2019-06-26T05:15:08.802Z,72.00
2019-06-26T05:17:37.922Z,72.00
2019-06-26T05:20:08.238Z,71.50
2019-06-26T05:22:37.273Z,71.30
2019-06-26T05:25:07.818Z,71.10
2019-06-26T05:27:37.360Z,71.30
2019-06-26T05:30:08.176Z,71.40
2019-06-26T05:32:37.241Z,71.50
2019-06-26T05:35:07.691Z,71.80
2019-06-26T05:37:36.754Z,71.40
2019-06-26T05:40:08.878Z,71.60
2019-06-26T05:42:37.989Z,71.80
2019-06-26T05:45:08.386Z,71.60
2019-06-26T05:47:37.804Z,71.40
2019-06-26T05:50:08.869Z,71.50
2019-06-26T05:52:41.307Z,71.40
2019-06-26T05:55:08.682Z,71.50
2019-06-26T05:57:41.616Z,71.10
2019-06-26T06:00:09.324Z,71.10
2019-06-26T06:02:38.304Z,70.90
2019-06-26T06:05:08.485Z,71.40
2019-06-26T06:07:37.937Z,71.40
2019-06-26T06:10:08.056Z,71.40
2019-06-26T06:12:37.237Z,71.10
2019-06-26T06:15:07.515Z,71.40
2019-06-26T06:17:37.065Z,71.10
2019-06-26T06:20:07.752Z,72.10
2019-06-26T06:22:36.901Z,71.40
2019-06-26T06:25:06.581Z,71.30
2019-06-26T06:27:35.737Z,71.00
2019-06-26T06:30:08.489Z,71.00
2019-06-26T06:32:37.555Z,71.10
2019-06-26T06:35:08.042Z,71.10
2019-06-26T06:37:37.517Z,71.00
2019-06-26T06:40:08.291Z,71.20
2019-06-26T06:42:37.466Z,71.20
2019-06-26T06:45:07.269Z,71.20
2019-06-26T06:47:36.399Z,71.30
2019-06-26T06:50:08.014Z,71.70
2019-06-26T06:52:37.538Z,71.40
2019-06-26T06:55:08.882Z,71.40
2019-06-26T06:57:38.080Z,71.50
2019-06-26T07:00:08.345Z,71.40
2019-06-26T07:02:37.470Z,71.20
2019-06-26T07:05:07.735Z,70.80
2019-06-26T07:07:36.882Z,70.70
2019-06-26T07:10:07.263Z,70.90
2019-06-26T07:12:36.443Z,70.40
2019-06-26T07:15:08.113Z,70.10
2019-06-26T07:17:37.259Z,70.10
2019-06-26T07:20:07.157Z,69.90
2019-06-26T07:22:36.580Z,70.40
2019-06-26T07:25:06.022Z,69.70
2019-06-26T07:27:35.130Z,69.50
2019-06-26T07:30:06.258Z,69.80
2019-06-26T07:32:35.649Z,69.80
2019-06-26T07:35:06.282Z,70.00
2019-06-26T07:37:35.319Z,70.70
2019-06-26T07:40:06.561Z,70.30
2019-06-26T07:42:35.656Z,71.10
2019-06-26T07:45:06.345Z,69.90
2019-06-26T07:47:43.270Z,70.00
2019-06-26T07:50:08.301Z,69.80
2019-06-26T07:52:37.406Z,70.10
2019-06-26T07:55:11.633Z,69.80
2019-06-26T07:57:38.828Z,69.60
2019-06-26T08:00:08.270Z,70.10
2019-06-26T08:02:37.339Z,69.90
2019-06-26T08:05:09.948Z,70.00
2019-06-26T08:07:39.025Z,70.10
2019-06-26T08:10:08.802Z,70.30
2019-06-26T08:12:37.796Z,70.20
2019-06-26T08:15:08.815Z,69.70
2019-06-26T08:17:37.910Z,70.40
2019-06-26T08:20:07.623Z,70.20
2019-06-26T08:22:37.042Z,70.20
2019-06-26T08:25:08.766Z,70.50
2019-06-26T08:27:37.787Z,70.20
2019-06-26T08:30:08.908Z,70.20
2019-06-26T08:32:38.354Z,69.90
2019-06-26T08:35:07.899Z,70.10
2019-06-26T08:37:36.946Z,69.80
2019-06-26T08:40:07.975Z,69.80
2019-06-26T08:42:36.999Z,69.80
2019-06-26T08:45:08.232Z,70.40
2019-06-26T08:47:37.281Z,70.30
2019-06-26T08:50:08.014Z,70.50
2019-06-26T08:52:37.348Z,70.60
2019-06-26T08:55:08.036Z,70.60
2019-06-26T08:57:37.187Z,70.30
2019-06-26T09:00:08.694Z,70.40
2019-06-26T09:02:37.794Z,70.40
2019-06-26T09:05:07.932Z,70.30
2019-06-26T09:07:37.960Z,70.30
2019-06-26T09:10:07.954Z,70.60
2019-06-26T09:12:37.026Z,70.10
2019-06-26T09:15:07.536Z,70.90
2019-06-26T09:17:37.204Z,71.20
2019-06-26T09:20:08.279Z,70.90
2019-06-26T09:22:37.363Z,70.70
2019-06-26T09:25:21.045Z,71.40
2019-06-26T09:27:38.679Z,71.40
2019-06-26T09:30:08.530Z,72.10
2019-06-26T09:32:37.568Z,71.20
2019-06-26T09:35:07.310Z,70.90
2019-06-26T09:37:36.348Z,71.30
2019-06-26T09:40:07.271Z,71.10
2019-06-26T09:42:36.309Z,71.10
2019-06-26T09:45:07.171Z,70.60
2019-06-26T09:47:36.199Z,71.50
2019-06-26T09:50:06.921Z,72.00
2019-06-26T09:52:36.039Z,71.30
2019-06-26T09:55:06.167Z,71.10
2019-06-26T09:57:35.535Z,71.70
2019-06-26T10:00:09.232Z,71.20
2019-06-26T10:02:38.269Z,71.70
2019-06-26T10:05:07.490Z,71.40
2019-06-26T10:07:36.572Z,71.30
2019-06-26T10:10:06.769Z,72.00
2019-06-26T10:12:35.837Z,72.60
2019-06-26T10:15:06.176Z,71.60
2019-06-26T10:17:35.341Z,71.20
2019-06-26T10:20:07.643Z,71.00
2019-06-26T10:22:36.717Z,70.60
2019-06-26T10:25:10.219Z,71.00
2019-06-26T10:27:37.339Z,71.00
2019-06-26T10:30:07.078Z,71.00
2019-06-26T10:32:36.141Z,71.40
2019-06-26T10:35:06.823Z,70.70
2019-06-26T10:37:35.883Z,70.60
2019-06-26T10:40:05.638Z,70.80
2019-06-26T10:42:34.638Z,70.00
2019-06-26T10:45:05.687Z,69.90
2019-06-26T10:47:34.788Z,70.20
2019-06-26T10:50:05.190Z,70.20
2019-06-26T10:52:35.101Z,70.30
2019-06-26T10:55:06.296Z,70.10
2019-06-26T10:57:35.365Z,70.90
2019-06-26T11:00:09.460Z,70.40
2019-06-26T11:02:38.791Z,70.60
2019-06-26T11:05:08.893Z,70.30
2019-06-26T11:07:37.942Z,70.80
2019-06-26T11:10:08.956Z,70.80
2019-06-26T11:12:38.055Z,70.60
2019-06-26T11:15:08.177Z,70.50
2019-06-26T11:17:37.445Z,70.30
2019-06-26T11:20:07.843Z,70.20
2019-06-26T11:22:37.183Z,70.10
2019-06-26T11:25:07.422Z,70.40
2019-06-26T11:27:36.989Z,70.50
2019-06-26T11:30:08.075Z,70.30
2019-06-26T11:32:37.151Z,69.80
2019-06-26T11:35:07.840Z,69.70
2019-06-26T11:37:37.245Z,69.50
2019-06-26T11:40:08.583Z,69.40
2019-06-26T11:42:37.640Z,69.60
2019-06-26T11:45:08.117Z,69.70
2019-06-26T11:47:37.658Z,70.00
2019-06-26T11:50:10.902Z,69.90
2019-06-26T11:52:40.065Z,69.80
2019-06-26T11:55:10.439Z,69.70
2019-06-26T11:57:39.629Z,69.90
2019-06-26T12:00:14.200Z,69.40
2019-06-26T12:02:43.248Z,69.40
2019-06-26T12:05:12.990Z,69.50
2019-06-26T12:07:42.077Z,69.50
2019-06-26T12:10:11.822Z,69.60
2019-06-26T12:12:41.065Z,69.70
2019-06-26T12:15:10.601Z,70.30
2019-06-26T12:17:40.364Z,70.10
2019-06-26T12:20:18.646Z,69.90
2019-06-26T12:22:40.470Z,69.80
2019-06-26T12:25:09.886Z,69.70
2019-06-26T12:27:38.901Z,69.30
2019-06-26T12:30:09.225Z,68.80
2019-06-26T12:32:42.439Z,68.80
2019-06-26T12:35:09.934Z,68.90
2019-06-26T12:37:39.007Z,68.90
2019-06-26T12:40:08.937Z,68.80
2019-06-26T12:42:38.311Z,69.10
2019-06-26T12:45:08.200Z,69.00
2019-06-26T12:47:37.735Z,68.90
2019-06-26T12:50:07.735Z,69.50
2019-06-26T12:52:37.251Z,68.90
2019-06-26T12:55:07.503Z,68.70
2019-06-26T12:57:36.494Z,68.30
2019-06-26T13:00:08.252Z,68.00
2019-06-26T13:02:37.301Z,68.00
2019-06-26T13:05:07.577Z,67.80
2019-06-26T13:07:37.053Z,67.80
2019-06-26T13:10:09.779Z,67.80
2019-06-26T13:12:38.899Z,67.90
2019-06-26T13:15:09.649Z,67.80
2019-06-26T13:17:38.714Z,68.00
2019-06-26T13:20:10.119Z,68.20
2019-06-26T13:22:39.234Z,67.80
2019-06-26T13:25:08.828Z,67.40
2019-06-26T13:27:37.922Z,67.40
2019-06-26T13:30:08.858Z,67.40
2019-06-26T13:32:37.866Z,67.20
2019-06-26T13:35:08.425Z,67.40
2019-06-26T13:37:37.434Z,67.00
2019-06-26T13:40:07.043Z,66.70
2019-06-26T13:42:36.142Z,66.80
2019-06-26T13:45:06.940Z,66.70
2019-06-26T13:47:36.053Z,66.40
2019-06-26T13:50:07.167Z,66.00
2019-06-26T13:52:36.256Z,65.80
2019-06-26T13:55:06.792Z,65.50
2019-06-26T13:57:35.832Z,65.20
2019-06-26T14:00:08.865Z,65.10
2019-06-26T14:02:37.941Z,64.30
2019-06-26T14:05:08.533Z,64.20
2019-06-26T14:07:37.613Z,63.90
2019-06-26T14:10:09.242Z,63.90
2019-06-26T14:12:38.478Z,64.10
2019-06-26T14:15:09.559Z,63.80
2019-06-26T14:17:38.576Z,64.00
2019-06-26T14:20:08.380Z,63.80
2019-06-26T14:22:37.492Z,63.80
2019-06-26T14:25:08.203Z,63.90
2019-06-26T14:27:37.322Z,64.10
2019-06-26T14:30:08.525Z,63.70
2019-06-26T14:32:37.504Z,63.50
2019-06-26T14:35:06.865Z,63.20
2019-06-26T14:37:36.009Z,62.60
2019-06-26T14:40:08.308Z,62.40
2019-06-26T14:42:37.363Z,62.50
2019-06-26T14:45:10.134Z,62.10
2019-06-26T14:47:39.100Z,62.00
2019-06-26T14:50:08.723Z,62.20
2019-06-26T14:52:37.723Z,62.30
2019-06-26T14:55:07.724Z,62.20
2019-06-26T14:57:36.781Z,62.00
2019-06-26T15:00:07.999Z,61.80
2019-06-26T15:02:37.024Z,62.10
2019-06-26T15:05:07.832Z,62.30
2019-06-26T15:07:37.221Z,62.20
2019-06-26T15:10:07.914Z,62.30
2019-06-26T15:12:37.304Z,62.10
2019-06-26T15:15:07.250Z,62.00
2019-06-26T15:17:36.616Z,62.10
2019-06-26T15:20:07.191Z,62.40
2019-06-26T15:22:36.257Z,62.30
2019-06-26T15:27:50.483Z,62.40
2019-06-26T15:30:21.350Z,62.90
2019-06-26T15:32:50.405Z,62.90
2019-06-26T15:35:19.428Z,62.80
2019-06-26T15:37:48.538Z,62.90
2019-06-26T15:40:17.752Z,63.00
2019-06-26T15:42:49.078Z,63.40
2019-06-26T15:45:20.651Z,63.50
2019-06-26T15:47:48.623Z,63.70
2019-06-26T15:50:18.210Z,63.70
2019-06-26T15:52:47.280Z,63.70
2019-06-26T15:55:16.319Z,63.80
2019-06-26T15:57:45.464Z,63.80
2019-06-26T16:00:15.331Z,64.00
2019-06-26T16:02:44.415Z,64.20
2019-06-26T16:05:14.733Z,64.30
2019-06-26T16:07:43.939Z,64.20
2019-06-26T16:10:13.838Z,64.10
2019-06-26T16:12:42.970Z,64.20
2019-06-26T16:15:13.577Z,64.00
2019-06-26T16:17:56.574Z,64.00
2019-06-26T16:20:25.678Z,64.50
2019-06-26T16:22:54.871Z,65.10
2019-06-26T16:25:24.021Z,65.80
2019-06-26T16:28:04.852Z,65.80
2019-06-26T16:30:23.810Z,65.90
2019-06-26T16:32:52.894Z,66.10
2019-06-26T16:35:22.065Z,66.00
2019-06-26T16:37:51.165Z,65.80
2019-06-26T16:40:20.273Z,66.10
2019-06-26T16:42:49.321Z,65.90
2019-06-26T16:45:18.563Z,65.80
2019-06-26T16:47:47.630Z,66.20
2019-06-26T16:50:18.248Z,66.10
2019-06-26T16:52:49.793Z,66.20
2019-06-26T16:55:18.392Z,66.40
2019-06-26T16:57:47.478Z,67.00
2019-06-26T17:00:17.532Z,67.00
2019-06-26T17:02:46.617Z,66.90
2019-06-26T17:05:15.804Z,67.00
2019-06-26T17:07:44.958Z,67.30
2019-06-26T17:10:14.765Z,67.30
2019-06-26T17:12:44.178Z,67.00
2019-06-26T17:15:13.776Z,67.70
2019-06-26T17:17:42.836Z,67.20
2019-06-26T17:20:12.003Z,67.30
2019-06-26T17:22:41.068Z,67.50
2019-06-26T17:25:10.357Z,67.70
2019-06-26T17:27:39.420Z,68.00
2019-06-26T17:30:09.025Z,67.90
2019-06-26T17:32:40.196Z,68.00
2019-06-26T17:35:09.747Z,67.90
2019-06-26T17:37:38.828Z,67.70
2019-06-26T17:40:09.646Z,67.60
2019-06-26T17:42:38.696Z,69.50
2019-06-26T17:45:08.703Z,68.30
2019-06-26T17:47:37.698Z,68.30
2019-06-26T17:50:11.117Z,67.90
2019-06-26T17:52:40.194Z,68.80
2019-06-26T17:55:10.106Z,69.20
2019-06-26T17:57:39.148Z,69.10
2019-06-26T18:00:10.361Z,69.10
2019-06-26T18:02:39.489Z,69.10
2019-06-26T18:05:10.033Z,69.50
2019-06-26T18:07:39.067Z,69.70
2019-06-26T18:10:08.534Z,70.00
2019-06-26T18:12:37.623Z,69.50
2019-06-26T18:15:08.223Z,69.90
2019-06-26T18:17:37.341Z,70.40
2019-06-26T18:20:10.230Z,69.80
2019-06-26T18:22:42.660Z,70.50
2019-06-26T18:25:16.686Z,70.60
2019-06-26T18:27:46.329Z,70.90
2019-06-26T18:30:16.641Z,70.70
2019-06-26T18:32:45.859Z,71.00
2019-06-26T18:35:15.449Z,71.10
2019-06-26T18:37:47.201Z,71.10
2019-06-26T18:40:16.650Z,71.00
2019-06-26T18:42:45.735Z,71.20
2019-06-26T18:45:16.213Z,71.10
2019-06-26T18:47:45.290Z,71.40
2019-06-26T18:50:14.632Z,70.70
2019-06-26T18:52:43.758Z,70.80
2019-06-26T18:55:13.084Z,72.20
2019-06-26T18:57:42.077Z,72.20
2019-06-26T19:00:11.751Z,72.20
2019-06-26T19:02:40.844Z,72.20
2019-06-26T19:05:10.030Z,71.90
2019-06-26T19:07:39.175Z,71.80
2019-06-26T19:10:10.062Z,72.30
2019-06-26T19:12:39.466Z,72.80
2019-06-26T19:15:08.662Z,73.00
2019-06-26T19:17:37.758Z,73.20
2019-06-26T19:20:07.865Z,73.70
2019-06-26T19:22:36.995Z,73.70
2019-06-26T19:25:08.155Z,73.80
2019-06-26T19:27:37.620Z,73.00
2019-06-26T19:30:08.524Z,73.00
2019-06-26T19:32:37.724Z,72.90
2019-06-26T19:35:18.127Z,74.20
2019-06-26T19:37:38.714Z,73.00
2019-06-26T19:40:09.064Z,73.90
2019-06-26T19:42:38.347Z,74.10
2019-06-26T19:45:09.302Z,73.90
2019-06-26T19:47:38.683Z,74.70
2019-06-26T19:50:09.634Z,75.00
2019-06-26T19:52:38.769Z,75.50
2019-06-26T19:55:08.238Z,75.10
2019-06-26T19:57:37.289Z,75.00
2019-06-26T20:00:09.133Z,75.30
2019-06-26T20:02:38.495Z,75.00
2019-06-26T20:05:08.382Z,75.20
2019-06-26T20:07:37.442Z,75.60
2019-06-26T20:10:07.347Z,75.50
2019-06-26T20:12:36.460Z,75.40
2019-06-26T20:15:06.986Z,75.50
2019-06-26T20:17:36.243Z,75.60
2019-06-26T20:20:07.603Z,75.40
2019-06-26T20:22:36.652Z,76.40
2019-06-26T20:25:08.085Z,76.40
2019-06-26T20:27:37.212Z,75.70
2019-06-26T20:30:09.580Z,76.70
2019-06-26T20:32:37.721Z,75.90
2019-06-26T20:35:07.456Z,77.20
2019-06-26T20:37:36.712Z,78.10
2019-06-26T20:40:07.641Z,77.70
2019-06-26T20:42:36.814Z,77.00
2019-06-26T20:45:06.803Z,77.40
2019-06-26T20:47:35.876Z,77.20
2019-06-26T20:50:06.509Z,78.30
2019-06-26T20:52:35.653Z,77.80
2019-06-26T20:55:08.507Z,77.80
2019-06-26T20:57:37.832Z,78.10
2019-06-26T21:00:08.859Z,77.80
2019-06-26T21:02:37.934Z,77.30
2019-06-26T21:05:09.855Z,78.00
2019-06-26T21:07:39.002Z,79.60
2019-06-26T21:10:08.633Z,79.20
2019-06-26T21:12:37.738Z,78.60
2019-06-26T21:15:07.676Z,79.00
2019-06-26T21:17:36.854Z,79.70
2019-06-26T21:20:06.999Z,79.80
2019-06-26T21:22:36.171Z,79.40
2019-06-26T21:25:18.402Z,79.20
2019-06-26T21:27:39.173Z,78.40
2019-06-26T21:30:08.915Z,78.30
2019-06-26T21:32:37.903Z,79.10
2019-06-26T21:35:07.567Z,78.60
2019-06-26T21:37:36.615Z,78.60
2019-06-26T21:40:06.336Z,79.20
2019-06-26T21:42:35.369Z,78.60
2019-06-26T21:45:05.397Z,79.10
2019-06-26T21:47:34.792Z,80.40
2019-06-26T21:50:04.324Z,79.00
2019-06-26T21:52:33.361Z,79.40
2019-06-26T21:55:02.485Z,78.10
2019-06-26T21:57:31.799Z,80.10
2019-06-26T22:00:01.209Z,79.30
2019-06-26T22:02:30.610Z,80.40
2019-06-26T22:04:59.750Z,79.70
2019-06-26T22:07:28.879Z,79.70
2019-06-26T22:09:58.146Z,79.40
2019-06-26T22:12:27.275Z,79.00
2019-06-26T22:14:56.696Z,79.50
2019-06-26T22:17:25.795Z,79.20
2019-06-26T22:19:54.797Z,79.40
2019-06-26T22:22:23.802Z,80.00
2019-06-26T22:24:52.777Z,80.90
2019-06-26T22:27:21.859Z,81.10
2019-06-26T22:29:50.905Z,80.10
2019-06-26T22:32:19.907Z,80.10
2019-06-26T22:34:48.981Z,79.50
2019-06-26T22:37:18.075Z,80.30
2019-06-26T22:39:47.078Z,79.90
2019-06-26T22:42:16.140Z,80.00
2019-06-26T22:44:45.169Z,80.00
2019-06-26T22:47:14.286Z,80.40
2019-06-26T22:49:43.624Z,80.30
2019-06-26T22:52:12.659Z,80.20
2019-06-26T22:54:41.741Z,80.30
2019-06-26T22:57:10.829Z,80.10
2019-06-26T22:59:39.826Z,80.50
2019-06-26T23:02:08.875Z,79.30
2019-06-26T23:04:37.925Z,80.20
2019-06-26T23:07:07.434Z,80.60
2019-06-26T23:09:36.470Z,80.30
2019-06-26T23:12:05.606Z,79.60
2019-06-26T23:14:34.715Z,80.60
2019-06-26T23:17:03.923Z,80.30
2019-06-26T23:19:32.927Z,80.50
2019-06-26T23:22:01.903Z,81.00
2019-06-26T23:24:30.914Z,80.70
2019-06-26T23:26:59.974Z,80.40
2019-06-26T23:29:29.083Z,80.60
2019-06-26T23:31:58.166Z,80.30
2019-06-26T23:34:27.252Z,79.40
2019-06-26T23:36:56.347Z,79.70
2019-06-26T23:39:25.472Z,79.50
2019-06-26T23:41:54.509Z,79.50
2019-06-26T23:44:23.572Z,79.80
2019-06-26T23:46:52.626Z,79.60
2019-06-26T23:49:21.645Z,79.80
2019-06-26T23:51:50.675Z,78.90
2019-06-26T23:54:19.722Z,79.00
2019-06-26T23:56:48.787Z,80.10
2019-06-26T23:59:17.809Z,80.40
